Time;durP1;ratioP1;P1;durP2;ratioP2;P2;SDS_P1;SDS_P2;PMS_P1;PMS_P2;Temp;Humidity;BMP_temperature;BMP_pressure;BME280_temperature;BME280_humidity;BME280_pressure;Samples;Min_cycle;Max_cycle;Signal;HPM_P1;HPM_P2
2023/09/18 00:00:21;;;;;;;24.50;15.57;;;;;;;18.44;100.00;100427.25;6211152;23;20399;-73
2023/09/18 00:02:50;;;;;;;26.08;15.70;;;;;;;18.43;100.00;100414.66;6211821;23;20035;-73
2023/09/18 00:05:15;;;;;;;24.75;14.85;;;;;;;18.44;100.00;100414.47;6211705;23;20004;-72
2023/09/18 00:07:44;;;;;;;25.60;14.98;;;;;;;18.42;100.00;100413.81;6185267;23;20322;-66
2023/09/18 00:10:13;;;;;;;25.30;15.43;;;;;;;18.44;100.00;100417.19;6211295;23;20100;-67
2023/09/18 00:12:39;;;;;;;25.80;15.13;;;;;;;18.45;100.00;100408.03;6211480;23;20005;-66
2023/09/18 00:15:07;;;;;;;30.48;15.07;;;;;;;18.47;100.00;100407.84;6212612;23;20043;-66
2023/09/18 00:17:32;;;;;;;25.17;15.30;;;;;;;18.46;100.00;100398.84;6212766;23;20000;-66
2023/09/18 00:19:58;;;;;;;26.05;14.32;;;;;;;18.47;100.00;100388.81;6213573;23;20004;-66
2023/09/18 00:22:24;;;;;;;25.92;13.70;;;;;;;18.48;100.00;100385.06;6214019;23;20024;-66
2023/09/18 00:24:49;;;;;;;25.38;15.32;;;;;;;18.49;100.00;100375.84;6213852;23;20070;-67
2023/09/18 00:27:15;;;;;;;24.90;13.55;;;;;;;18.50;100.00;100374.84;6213323;23;20012;-66
2023/09/18 00:29:41;;;;;;;24.27;14.65;;;;;;;18.50;100.00;100372.97;6213166;23;20092;-67
2023/09/18 00:32:07;;;;;;;24.83;14.32;;;;;;;18.51;100.00;100358.34;6186254;23;20042;-67
2023/09/18 00:34:32;;;;;;;22.75;13.32;;;;;;;18.52;100.00;100356.44;6213963;23;20001;-66
2023/09/18 00:36:59;;;;;;;24.50;13.70;;;;;;;18.53;100.00;100360.88;6213690;23;20030;-66
2023/09/18 00:39:24;;;;;;;27.13;13.82;;;;;;;18.54;100.00;100351.69;6213580;23;20012;-67
2023/09/18 00:41:53;;;;;;;25.17;11.98;;;;;;;18.54;100.00;100348.97;6212752;23;20445;-66
2023/09/18 00:44:19;;;;;;;24.00;13.80;;;;;;;18.55;100.00;100341.66;6213550;23;20008;-66
2023/09/18 00:46:44;;;;;;;22.60;12.85;;;;;;;18.55;100.00;100336.22;6213597;23;20000;-66
2023/09/18 00:49:11;;;;;;;22.08;11.52;;;;;;;18.55;100.00;100342.53;6186547;23;20009;-66
2023/09/18 00:51:36;;;;;;;26.23;13.43;;;;;;;18.55;100.00;100334.34;6213031;23;20021;-66
2023/09/18 00:54:02;;;;;;;21.80;12.20;;;;;;;18.56;100.00;100337.91;6213067;23;20060;-67
2023/09/18 00:56:27;;;;;;;23.63;12.10;;;;;;;18.55;100.00;100319.88;6213867;23;20000;-66
2023/09/18 00:58:54;;;;;;;21.48;11.55;;;;;;;18.56;100.00;100327.03;6213303;23;20322;-66
2023/09/18 01:01:22;;;;;;;22.10;11.13;;;;;;;18.55;100.00;100314.44;6186646;23;20019;-66
2023/09/18 01:03:53;;;;;;;23.90;11.30;;;;;;;18.56;100.00;100307.97;6187255;23;20027;-66
2023/09/18 01:06:19;;;;;;;22.77;12.40;;;;;;;18.56;100.00;100300.66;6213493;23;20012;-67
2023/09/18 01:08:45;;;;;;;21.90;11.70;;;;;;;18.57;100.00;100291.47;6213684;23;20330;-66
2023/09/18 01:11:18;;;;;;;26.67;12.75;;;;;;;18.58;100.00;100289.59;6186691;23;20104;-66
2023/09/18 01:14:12;;;;;;;24.80;11.80;;;;;;;18.60;100.00;100291.09;6212570;23;20017;-66
2023/09/18 01:16:58;;;;;;;25.50;11.45;;;;;;;18.59;100.00;100286.69;6169157;23;20067;-67
2023/09/18 01:19:38;;;;;;;23.88;12.52;;;;;;;18.60;100.00;100272.06;6212922;23;20331;-67
2023/09/18 01:22:04;;;;;;;;;;;;;;;18.65;100.00;100276.94;6213714;23;20001;-67
2023/09/18 01:24:30;;;;;;;23.13;10.88;;;;;;;18.61;100.00;100271.03;6185978;23;19912;-68
2023/09/18 01:26:55;;;;;;;22.75;9.43;;;;;;;18.61;100.00;100281.06;6185539;23;20058;-66
2023/09/18 01:29:20;;;;;;;21.67;11.20;;;;;;;18.62;100.00;100277.31;6212237;23;20024;-66
2023/09/18 01:31:48;;;;;;;21.58;9.95;;;;;;;18.63;100.00;100268.13;6212494;23;20001;-66
2023/09/18 01:34:16;;;;;;;27.77;10.18;;;;;;;18.62;100.00;100275.44;6212280;23;20004;-66
2023/09/18 01:36:44;;;;;;;22.58;10.05;;;;;;;18.64;100.00;100283.44;6212219;23;20000;-68
2023/09/18 01:39:11;;;;;;;23.85;10.40;;;;;;;18.65;100.00;100287.84;6212824;23;20009;-66
2023/09/18 01:41:38;;;;;;;21.38;9.75;;;;;;;18.66;100.00;100300.44;6185998;23;20059;-67
2023/09/18 01:44:04;;;;;;;22.13;9.43;;;;;;;18.67;100.00;100285.81;6211572;23;20004;-66
2023/09/18 01:46:32;;;;;;;25.10;10.85;;;;;;;18.67;100.00;100291.25;6213187;23;20083;-66
2023/09/18 01:48:58;;;;;;;21.58;9.77;;;;;;;18.68;100.00;100293.78;6211900;23;20004;-66
2023/09/18 01:51:24;;;;;;;20.73;8.52;;;;;;;18.69;100.00;100289.19;6185062;23;20004;-67
2023/09/18 01:53:49;;;;;;;22.88;10.20;;;;;;;18.71;100.00;100286.28;6212308;23;20014;-67
2023/09/18 01:56:14;;;;;;;20.98;9.43;;;;;;;18.71;100.00;100283.56;6185313;23;20020;-66
2023/09/18 01:58:40;;;;;;;19.58;10.18;;;;;;;18.71;100.00;100281.69;6211653;23;20058;-66
2023/09/18 02:01:05;;;;;;;23.35;8.98;;;;;;;18.71;100.00;100270.78;6212050;23;20005;-66
2023/09/18 02:03:30;;;;;;;24.50;10.18;;;;;;;18.71;100.00;100270.78;6212328;23;20031;-66
2023/09/18 02:05:55;;;;;;;21.65;9.07;;;;;;;18.71;100.00;100269.94;6212017;23;20060;-66
2023/09/18 02:08:21;;;;;;;21.58;8.68;;;;;;;18.71;100.00;100270.78;6213080;23;20011;-67
2023/09/18 02:10:46;;;;;;;24.17;9.75;;;;;;;18.71;100.00;100270.78;6212271;23;20032;-66
2023/09/18 02:13:12;;;;;;;20.25;9.55;;;;;;;18.71;100.00;100270.78;6212769;23;20064;-66
2023/09/18 02:15:38;;;;;;;24.35;10.02;;;;;;;18.71;100.00;100269.94;6212372;23;20513;-66
2023/09/18 02:18:04;;;;;;;19.38;8.65;;;;;;;18.70;100.00;100274.56;6186022;23;20000;-66
2023/09/18 02:20:29;;;;;;;20.90;8.88;;;;;;;18.69;100.00;100260.06;6212690;23;20007;-67
2023/09/18 02:22:54;;;;;;;20.77;8.70;;;;;;;18.71;100.00;100251.72;6213098;23;20793;-66
2023/09/18 02:25:20;;;;;;;19.60;8.23;;;;;;;18.70;100.00;100241.91;6212754;23;20249;-65
2023/09/18 02:27:45;;;;;;;20.23;8.38;;;;;;;18.69;100.00;100235.59;6212513;23;20062;-66
2023/09/18 02:30:11;;;;;;;20.77;9.05;;;;;;;18.71;100.00;100243.56;6185718;23;20030;-66
2023/09/18 02:32:36;;;;;;;20.08;8.45;;;;;;;18.70;100.00;100228.28;6212432;23;20043;-67
2023/09/18 02:35:02;;;;;;;19.70;8.43;;;;;;;18.70;100.00;100220.13;6212828;23;20014;-66
2023/09/18 02:37:29;;;;;;;20.30;8.68;;;;;;;18.69;100.00;100218.41;6211921;23;20020;-66
2023/09/18 02:39:54;;;;;;;21.00;8.55;;;;;;;18.69;100.00;100229.31;6211995;23;20464;-66
2023/09/18 02:42:19;;;;;;;22.90;9.00;;;;;;;18.67;100.00;100218.59;6212452;23;20103;-66
2023/09/18 02:44:44;;;;;;;24.88;8.55;;;;;;;18.68;100.00;100214.00;6212458;23;20291;-66
2023/09/18 02:47:10;;;;;;;21.35;9.23;;;;;;;18.68;100.00;100201.25;6211970;23;20005;-66
2023/09/18 02:49:35;;;;;;;20.88;8.52;;;;;;;18.67;100.00;100196.00;6212266;23;20016;-66
2023/09/18 02:52:00;;;;;;;19.88;8.70;;;;;;;18.66;100.00;100195.13;6211982;23;20015;-66
2023/09/18 02:54:27;;;;;;;25.35;9.27;;;;;;;18.66;100.00;100202.44;6185743;23;20354;-66
2023/09/18 02:56:52;;;;;;;22.02;8.18;;;;;;;18.65;100.00;100203.47;6210745;23;20460;-66
2023/09/18 02:59:17;;;;;;;19.00;7.97;;;;;;;18.65;100.00;100188.00;6211983;23;20000;-69
2023/09/18 03:01:43;;;;;;;24.52;8.00;;;;;;;18.63;100.00;100176.44;6212075;23;20007;-69
2023/09/18 03:04:08;;;;;;;22.30;8.65;;;;;;;18.64;100.00;100172.69;6212054;23;20023;-68
2023/09/18 03:06:33;;;;;;;29.30;8.50;;;;;;;18.65;100.00;100160.78;6211964;23;20008;-69
2023/09/18 03:08:58;;;;;;;20.77;8.48;;;;;;;18.66;100.00;100139.84;6212049;23;20000;-69
2023/09/18 03:11:27;;;;;;;22.92;8.23;;;;;;;18.67;100.00;100144.28;6212282;23;20004;-69
2023/09/18 03:13:52;;;;;;;18.67;7.90;;;;;;;18.68;100.00;100159.56;6185143;23;20435;-70
2023/09/18 03:16:17;;;;;;;22.63;8.95;;;;;;;18.67;100.00;100155.16;6211663;23;20028;-69
2023/09/18 03:18:43;;;;;;;21.77;8.32;;;;;;;18.66;100.00;100139.84;6211077;23;20008;-68
2023/09/18 03:21:08;;;;;;;19.58;8.02;;;;;;;18.66;100.00;100154.28;6212179;23;20004;-69
2023/09/18 03:23:34;;;;;;;20.42;8.18;;;;;;;18.66;100.00;100150.72;6211908;23;20385;-68
2023/09/18 03:26:02;;;;;;;20.55;8.45;;;;;;;18.65;100.00;100157.19;6211831;23;20434;-69
2023/09/18 03:28:27;;;;;;;23.63;8.27;;;;;;;18.64;100.00;100145.47;6210994;23;20004;-68
2023/09/18 03:30:53;;;;;;;23.50;8.50;;;;;;;18.65;100.00;100162.66;6184914;23;20461;-69
2023/09/18 03:33:18;;;;;;;21.50;8.27;;;;;;;18.64;100.00;100166.41;6183750;23;20425;-69
2023/09/18 03:35:54;;;;;;;20.85;8.57;;;;;;;18.63;100.00;100184.59;6185041;23;20004;-69
2023/09/18 03:38:20;;;;;;;21.77;8.65;;;;;;;18.61;100.00;100167.63;6211081;23;20005;-69
2023/09/18 03:40:46;;;;;;;20.65;9.25;;;;;;;18.63;100.00;100181.03;6211148;23;20016;-68
2023/09/18 03:43:14;;;;;;;21.98;8.60;;;;;;;18.64;100.00;100160.97;6211300;23;20005;-68
2023/09/18 03:45:42;;;;;;;19.58;8.35;;;;;;;18.66;100.00;100186.13;6212002;23;20009;-69
2023/09/18 03:48:08;;;;;;;25.98;9.63;;;;;;;18.66;100.00;100186.94;6210980;23;20004;-69
2023/09/18 03:50:33;;;;;;;23.27;9.60;;;;;;;18.67;100.00;100171.50;6211643;23;20001;-69
2023/09/18 03:52:59;;;;;;;25.27;8.70;;;;;;;18.66;100.00;100173.34;6213208;23;20012;-70
2023/09/18 03:55:24;;;;;;;20.52;8.48;;;;;;;18.68;100.00;100162.28;6213426;23;20000;-69
2023/09/18 03:57:49;;;;;;;22.52;8.90;;;;;;;18.68;100.00;100168.59;6212491;23;20083;-69
2023/09/18 04:00:16;;;;;;;24.75;8.68;;;;;;;18.69;100.00;100169.41;6213487;23;20005;-69
2023/09/18 04:02:41;;;;;;;22.10;9.98;;;;;;;18.69;100.00;100180.31;6211724;23;20075;-70
2023/09/18 04:05:07;;;;;;;21.92;9.00;;;;;;;18.70;100.00;100209.22;6213015;23;20086;-70
2023/09/18 04:07:32;;;;;;;21.25;8.73;;;;;;;18.71;100.00;100205.47;6213292;23;20329;-68
2023/09/18 04:09:57;;;;;;;21.98;8.63;;;;;;;18.71;100.00;100199.19;6213000;23;20031;-69
2023/09/18 04:12:23;;;;;;;21.88;9.07;;;;;;;18.72;100.00;100198.16;6213757;23;20099;-69
2023/09/18 04:14:48;;;;;;;19.73;9.00;;;;;;;18.70;100.00;100184.72;6212855;23;20058;-68
2023/09/18 04:17:15;;;;;;;20.90;9.82;;;;;;;18.72;100.00;100192.72;6213453;23;20088;-69
2023/09/18 04:19:40;;;;;;;21.08;9.07;;;;;;;18.71;100.00;100182.84;6211922;23;20032;-70
2023/09/18 04:22:05;;;;;;;22.67;10.10;;;;;;;18.71;100.00;100166.50;6212584;23;20039;-68
2023/09/18 04:24:31;;;;;;;22.52;8.35;;;;;;;18.69;100.00;100153.09;6186460;23;19997;-69
2023/09/18 04:26:56;;;;;;;20.42;9.43;;;;;;;18.69;100.00;100161.25;6213618;23;20004;-75
2023/09/18 04:29:21;;;;;;;24.00;10.52;;;;;;;18.70;100.00;100160.22;6185924;23;20025;-74
2023/09/18 04:31:48;;;;;;;24.05;9.13;;;;;;;18.69;100.00;100163.97;6212675;23;20001;-73
2023/09/18 04:34:13;;;;;;;23.23;8.63;;;;;;;18.68;100.00;100152.25;6212977;23;20438;-74
2023/09/18 04:36:38;;;;;;;22.55;10.20;;;;;;;18.68;100.00;100156.84;6213384;23;20079;-74
2023/09/18 04:39:05;;;;;;;23.40;9.45;;;;;;;18.68;100.00;100135.06;6212911;23;20094;-73
2023/09/18 04:41:30;;;;;;;21.65;10.55;;;;;;;18.67;100.00;100128.78;6211623;23;20000;-74
2023/09/18 04:43:56;;;;;;;21.77;9.55;;;;;;;18.66;100.00;100110.75;6212711;23;20338;-74
2023/09/18 04:46:21;;;;;;;23.48;9.98;;;;;;;18.66;100.00;100102.56;6213058;23;20007;-74
2023/09/18 04:48:47;;;;;;;20.52;9.38;;;;;;;18.64;100.00;100104.66;6213889;23;20055;-74
2023/09/18 04:51:12;;;;;;;22.50;9.90;;;;;;;18.62;100.00;100090.38;6186455;23;20005;-74
2023/09/18 04:53:38;;;;;;;21.70;8.52;;;;;;;18.61;100.00;100094.13;6186125;23;20032;-75
2023/09/18 04:56:03;;;;;;;23.02;10.40;;;;;;;18.60;100.00;100087.00;6213735;23;20058;-75
2023/09/18 04:58:29;;;;;;;23.05;10.05;;;;;;;18.60;100.00;100091.59;6213646;23;20000;-75
2023/09/18 05:00:59;;;;;;;21.45;10.07;;;;;;;18.59;100.00;100089.91;6212963;23;20000;-74
2023/09/18 05:03:25;;;;;;;21.63;9.88;;;;;;;18.57;100.00;100090.09;6185537;23;20070;-74
2023/09/18 05:05:50;;;;;;;25.65;10.35;;;;;;;18.57;100.00;100091.97;6213203;23;20009;-74
2023/09/18 05:08:16;;;;;;;27.83;10.02;;;;;;;18.56;100.00;100093.81;6212771;23;20004;-74
2023/09/18 05:10:41;;;;;;;21.38;9.85;;;;;;;18.54;100.00;100090.47;6212571;23;20096;-75
2023/09/18 05:13:07;;;;;;;22.17;9.98;;;;;;;18.54;100.00;100089.59;6211863;23;20393;-73
2023/09/18 05:15:33;;;;;;;22.83;9.93;;;;;;;18.52;100.00;100089.78;6211554;23;20080;-74
2023/09/18 05:17:59;;;;;;;20.85;9.35;;;;;;;18.52;100.00;100103.38;6186246;23;20005;-74
2023/09/18 05:20:26;;;;;;;19.38;8.18;;;;;;;18.50;100.00;100110.88;6213159;23;20108;-74
2023/09/18 05:22:56;;;;;;;20.38;8.00;;;;;;;18.47;100.00;100112.09;6211807;23;20325;-74
2023/09/18 05:25:23;;;;;;;18.90;7.47;;;;;;;18.45;100.00;100114.16;6211870;23;20081;-75
2023/09/18 05:27:55;;;;;;;20.05;6.82;;;;;;;18.44;100.00;100123.34;6185298;23;20076;-74
2023/09/18 05:30:32;;;;;;;20.88;6.15;;;;;;;18.42;100.00;100113.66;6154132;23;20348;-74
2023/09/18 05:33:04;;;;;;;18.80;5.68;;;;;;;18.41;100.00;100101.94;6153131;23;20013;-74
2023/09/18 05:35:34;;;;;;;18.17;4.97;;;;;;;18.40;100.00;100100.25;6151374;23;20093;-74
2023/09/18 05:37:59;;;;;;;;;;;;;;;18.46;100.00;100096.81;6150728;23;20348;-75
2023/09/18 05:40:28;;;;;;;16.02;5.05;;;;;;;18.40;100.00;100100.25;6152568;23;19909;-74
2023/09/18 05:42:54;;;;;;;13.93;4.95;;;;;;;18.40;100.00;100104.84;6151278;23;20343;-75
2023/09/18 05:45:20;;;;;;;17.00;5.00;;;;;;;18.39;100.00;100109.47;6151962;23;20454;-74
2023/09/18 05:47:45;;;;;;;14.23;4.82;;;;;;;18.37;100.00;100108.78;6150890;23;20127;-74
2023/09/18 05:50:16;;;;;;;15.35;4.45;;;;;;;18.35;100.00;100124.44;6149962;23;20108;-74
2023/09/18 05:52:45;;;;;;;12.23;3.97;;;;;;;18.34;100.00;100125.47;6151861;23;20423;-75
2023/09/18 05:55:11;;;;;;;11.73;3.60;;;;;;;18.34;100.00;100122.75;6151969;23;20009;-74
2023/09/18 05:57:37;;;;;;;13.13;3.55;;;;;;;18.32;100.00;100139.25;6151389;23;20009;-75
2023/09/18 06:00:03;;;;;;;9.43;3.60;;;;;;;18.33;100.00;100142.81;6150271;23;20006;-74
2023/09/18 06:02:28;;;;;;;12.93;4.03;;;;;;;18.32;100.00;100133.81;6152386;23;20422;-74
2023/09/18 06:04:59;;;;;;;9.50;3.25;;;;;;;18.31;100.00;100140.25;6153201;23;20001;-73
2023/09/18 06:07:26;;;;;;;9.48;3.00;;;;;;;18.31;100.00;100139.44;6152933;23;20005;-75
2023/09/18 06:09:52;;;;;;;7.47;3.00;;;;;;;18.31;100.00;100139.44;6152709;23;20072;-74
2023/09/18 06:12:17;;;;;;;10.20;3.45;;;;;;;18.32;100.00;100146.56;6149606;23;20001;-74
2023/09/18 06:14:42;;;;;;;12.10;3.20;;;;;;;18.31;100.00;100144.88;6152507;23;20068;-74
2023/09/18 06:17:09;;;;;;;8.48;2.67;;;;;;;18.30;100.00;100144.03;6152503;23;20332;-74
2023/09/18 06:19:35;;;;;;;10.15;2.80;;;;;;;18.30;100.00;100162.22;6152602;23;20022;-75
2023/09/18 06:22:00;;;;;;;11.98;3.55;;;;;;;18.29;100.00;100152.38;6153056;23;20021;-74
2023/09/18 06:24:26;;;;;;;9.77;3.17;;;;;;;18.29;100.00;100155.09;6151850;23;20435;-74
2023/09/18 06:26:54;;;;;;;10.23;3.03;;;;;;;18.28;100.00;100159.66;6152672;23;20009;-72
2023/09/18 06:29:19;;;;;;;10.68;3.03;;;;;;;18.28;100.00;100162.38;6180668;23;20292;-74
2023/09/18 06:31:45;;;;;;;8.88;2.72;;;;;;;18.27;100.00;100165.28;6212162;23;20011;-74
2023/09/18 06:34:10;;;;;;;11.30;3.38;;;;;;;18.26;100.00;100164.47;6185880;23;20339;-74
2023/09/18 06:36:37;;;;;;;13.50;2.92;;;;;;;18.26;100.00;100163.59;6212627;23;20040;-74
2023/09/18 06:39:03;;;;;;;7.90;2.80;;;;;;;18.26;100.00;100169.91;6211829;23;20004;-73
2023/09/18 06:41:28;;;;;;;9.07;2.70;;;;;;;18.27;100.00;100178.88;6211865;23;20011;-75
2023/09/18 06:43:53;;;;;;;12.68;2.88;;;;;;;18.27;100.00;100176.19;6211899;23;20005;-75
2023/09/18 06:46:19;;;;;;;5.05;2.60;;;;;;;18.28;100.00;100183.31;6211681;23;20012;-74
2023/09/18 06:48:45;;;;;;;10.00;3.30;;;;;;;18.28;100.00;100188.75;6212395;23;20079;-74
2023/09/18 06:51:11;;;;;;;6.05;2.35;;;;;;;18.29;100.00;100187.75;6185555;23;20012;-73
2023/09/18 06:53:36;;;;;;;8.13;3.38;;;;;;;18.31;100.00;100180.22;6211497;23;20096;-74
2023/09/18 06:56:01;;;;;;;8.35;2.78;;;;;;;18.32;100.00;100206.41;6184953;23;20000;-74
2023/09/18 06:58:27;;;;;;;6.80;2.70;;;;;;;18.32;100.00;100207.25;6185022;23;20000;-74
2023/09/18 07:00:52;;;;;;;12.27;2.83;;;;;;;18.33;100.00;100199.94;6211734;23;20079;-74
2023/09/18 07:03:17;;;;;;;7.43;2.88;;;;;;;18.34;100.00;100201.63;6211834;23;20303;-74
2023/09/18 07:05:43;;;;;;;7.35;2.28;;;;;;;18.35;100.00;100203.34;6185321;23;20012;-75
2023/09/18 07:08:11;;;;;;;8.00;2.97;;;;;;;18.36;100.00;100196.88;6211709;23;20004;-74
2023/09/18 07:10:37;;;;;;;8.27;2.65;;;;;;;18.37;100.00;100200.44;6211580;23;20076;-74
2023/09/18 07:13:02;;;;;;;10.75;2.55;;;;;;;18.37;100.00;100204.00;6212348;23;20011;-75
2023/09/18 07:15:27;;;;;;;7.43;2.53;;;;;;;18.38;100.00;100199.41;6211339;23;20311;-73
2023/09/18 07:17:53;;;;;;;5.10;2.22;;;;;;;18.37;100.00;100198.56;6211811;23;20001;-74
2023/09/18 07:20:18;;;;;;;8.80;2.97;;;;;;;18.38;100.00;100202.97;6211202;23;20100;-74
2023/09/18 07:22:47;;;;;;;8.75;2.75;;;;;;;18.39;100.00;100209.25;6211783;23;20027;-74
2023/09/18 07:25:13;;;;;;;11.35;3.42;;;;;;;18.39;100.00;100206.53;6211854;23;20015;-74
2023/09/18 07:27:43;;;;;;;8.98;2.70;;;;;;;18.39;100.00;100201.09;6209080;23;20004;-75
2023/09/18 07:30:10;;;;;;;9.77;2.78;;;;;;;18.39;100.00;100212.84;6209805;23;20022;-74
2023/09/18 07:32:36;;;;;;;9.02;2.90;;;;;;;18.41;100.00;100221.66;6210076;23;20028;-75
2023/09/18 07:35:01;;;;;;;10.70;2.83;;;;;;;18.44;100.00;100220.47;6210783;23;20079;-74
2023/09/18 07:37:27;;;;;;;8.85;2.65;;;;;;;18.45;100.00;100214.84;6209812;23;20004;-75
2023/09/18 07:39:53;;;;;;;10.80;3.20;;;;;;;18.47;100.00;100230.97;6210383;23;20000;-74
2023/09/18 07:42:18;;;;;;;7.82;3.13;;;;;;;18.47;100.00;100226.38;6210811;23;20007;-73
2023/09/18 07:44:43;;;;;;;7.15;2.80;;;;;;;18.48;100.00;100228.09;6210541;23;20383;-74
2023/09/18 07:47:09;;;;;;;6.90;2.47;;;;;;;18.48;100.00;100225.34;6182777;23;20415;-74
2023/09/18 07:49:34;;;;;;;8.52;2.75;;;;;;;18.50;100.00;100223.28;6210090;23;20004;-74
2023/09/18 07:51:59;;;;;;;10.95;3.00;;;;;;;18.53;100.00;100224.81;6210794;23;20131;-74
2023/09/18 07:54:25;;;;;;;7.53;3.05;;;;;;;18.54;100.00;100223.78;6183072;23;20019;-74
2023/09/18 07:56:50;;;;;;;8.00;2.85;;;;;;;18.54;100.00;100223.78;6210357;23;20009;-69
2023/09/18 07:59:16;;;;;;;9.57;2.75;;;;;;;18.55;100.00;100220.06;6209029;23;20252;-70
2023/09/18 08:01:41;;;;;;;10.88;3.17;;;;;;;18.54;100.00;100215.63;6183566;23;20004;-69
2023/09/18 08:04:06;;;;;;;9.55;3.20;;;;;;;18.56;100.00;100215.44;6211153;23;20054;-70
2023/09/18 08:06:32;;;;;;;10.00;2.97;;;;;;;18.56;100.00;100215.44;6210207;23;20015;-70
2023/09/18 08:08:57;;;;;;;16.50;3.22;;;;;;;18.56;100.00;100231.78;6210564;23;20004;-70
2023/09/18 08:11:23;;;;;;;13.40;3.30;;;;;;;18.55;100.00;100230.94;6210786;23;20000;-70
2023/09/18 08:13:48;;;;;;;8.52;2.97;;;;;;;18.53;100.00;100238.41;6209972;23;20012;-69
2023/09/18 08:16:13;;;;;;;7.65;2.53;;;;;;;18.52;100.00;100229.41;6211130;23;20028;-70
2023/09/18 08:18:41;;;;;;;6.95;2.55;;;;;;;18.50;100.00;100223.28;6210886;23;20004;-70
2023/09/18 08:21:08;;;;;;;8.38;2.95;;;;;;;18.50;100.00;100236.91;6184089;23;20078;-70
2023/09/18 08:23:35;;;;;;;8.35;3.17;;;;;;;18.50;100.00;100242.34;6211422;23;20015;-70
2023/09/18 08:26:01;;;;;;;10.07;3.10;;;;;;;18.51;100.00;100243.22;6211075;23;20027;-70
2023/09/18 08:28:26;;;;;;;10.45;3.33;;;;;;;18.52;100.00;100245.75;6210676;23;20004;-70
2023/09/18 08:30:52;;;;;;;8.60;2.67;;;;;;;18.55;100.00;100254.56;6184424;23;20040;-70
2023/09/18 08:33:17;;;;;;;11.35;3.00;;;;;;;18.58;100.00;100254.19;6212252;23;20115;-69
2023/09/18 08:35:44;;;;;;;13.18;2.97;;;;;;;18.60;100.00;100263.06;6212071;23;20011;-69
2023/09/18 08:38:09;;;;;;;8.00;3.22;;;;;;;18.61;100.00;100270.16;6212194;23;20022;-70
2023/09/18 08:40:35;;;;;;;12.45;3.10;;;;;;;18.62;100.00;100271.88;6213430;23;20273;-69
2023/09/18 08:43:01;;;;;;;6.68;2.90;;;;;;;18.63;100.00;100268.13;6213415;23;20060;-70
2023/09/18 08:45:46;;;;;;;10.18;3.17;;;;;;;18.66;100.00;100273.22;6213599;23;20084;-68
2023/09/18 08:48:11;;;;;;;8.70;2.75;;;;;;;18.66;100.00;100267.78;6213468;23;20008;-68
2023/09/18 08:50:38;;;;;;;9.98;2.70;;;;;;;18.69;100.00;100267.41;6214384;23;20055;-69
2023/09/18 08:53:04;;;;;;;10.18;3.03;;;;;;;18.72;100.00;100277.94;6213771;23;20004;-70
2023/09/18 08:55:30;;;;;;;11.43;3.40;;;;;;;18.73;100.00;100265.16;6213038;23;20012;-70
2023/09/18 08:57:57;;;;;;;7.72;3.08;;;;;;;18.75;100.00;100266.69;6213640;23;20015;-70
2023/09/18 09:00:23;;;;;;;10.95;3.00;;;;;;;18.80;100.00;100274.31;6213701;23;20306;-70
2023/09/18 09:02:53;;;;;;;6.75;2.92;;;;;;;18.83;100.00;100263.06;6184452;23;20098;-70
2023/09/18 09:05:19;;;;;;;10.82;3.30;;;;;;;18.83;100.00;100271.25;6186365;23;20004;-70
2023/09/18 09:07:45;;;;;;;10.57;3.17;;;;;;;18.87;100.00;100258.97;6186417;23;20733;-72
2023/09/18 09:10:10;;;;;;;10.07;3.83;;;;;;;18.93;100.00;100276.47;6212755;23;20011;-70
2023/09/18 09:12:55;;;;;;;11.13;3.30;;;;;;;18.99;100.00;100270.28;6213543;23;20095;-71
2023/09/18 09:15:27;;;;;;;12.65;3.95;;;;;;;19.05;100.00;100266.84;6186713;23;20016;-70
2023/09/18 09:18:06;;;;;;;13.80;4.03;;;;;;;19.11;100.00;100271.56;6213074;23;20011;-70
2023/09/18 09:20:31;;;;;;;13.10;4.10;;;;;;;19.12;100.00;100280.56;6212130;23;20000;-71
2023/09/18 09:23:09;;;;;;;11.50;3.72;;;;;;;19.18;100.00;100280.69;6212983;23;20004;-71
2023/09/18 09:25:36;;;;;;;11.52;3.58;;;;;;;19.21;100.00;100291.22;6213155;23;20442;-71
2023/09/18 09:28:07;;;;;;;9.88;3.58;;;;;;;19.28;100.00;100287.78;6213329;23;20001;-71
2023/09/18 09:30:34;;;;;;;15.35;4.00;;;;;;;19.30;100.00;100297.47;6211667;23;20020;-70
2023/09/18 09:33:04;;;;;;;15.17;4.07;;;;;;;19.36;100.00;100295.88;6212939;23;20067;-71
2023/09/18 09:35:36;;;;;;;11.32;3.78;;;;;;;19.41;100.00;100292.59;6213609;23;20632;-70
2023/09/18 09:38:09;;;;;;;11.68;3.67;;;;;;;19.44;100.00;100292.22;6185835;23;20407;-71
2023/09/18 09:40:35;;;;;;;12.40;3.95;;;;;;;19.44;100.00;100303.13;6185703;23;20028;-71
2023/09/18 09:43:02;;;;;;;8.68;3.63;;;;;;;19.46;100.00;100292.88;6212232;23;20035;-71
2023/09/18 09:45:35;;;;;;;11.00;3.60;;;;;;;19.49;100.00;100285.19;6213007;23;20431;-71
2023/09/18 09:48:04;;;;;;;10.38;3.65;;;;;;;19.50;100.00;100289.63;6213043;23;20004;-71
2023/09/18 09:50:29;;;;;;;13.23;4.10;;;;;;;19.50;100.00;100276.00;6185921;23;20007;-71
2023/09/18 09:52:55;;;;;;;13.93;3.83;;;;;;;19.54;100.00;100290.94;6186292;23;20004;-70
2023/09/18 09:55:28;;;;;;;11.25;3.92;;;;;;;19.54;100.00;100280.03;6213162;23;20017;-71
2023/09/18 09:58:04;;;;;;;12.40;3.65;;;;;;;19.59;100.00;100278.63;6212993;23;20080;-71
2023/09/18 10:00:42;;;;;;;11.38;3.47;;;;;;;19.62;100.00;100286.44;6211592;23;20031;-71
2023/09/18 10:03:08;;;;;;;10.63;3.40;;;;;;;19.65;100.00;100292.38;6212499;23;20011;-71
2023/09/18 10:05:39;;;;;;;8.65;3.25;;;;;;;19.68;100.00;100293.88;6185793;23;20039;-70
2023/09/18 10:08:11;;;;;;;10.13;3.55;;;;;;;19.71;100.00;100307.16;6212636;23;20423;-71
2023/09/18 10:10:42;;;;;;;9.40;3.50;;;;;;;19.73;100.00;100305.91;6211918;23;20415;-71
2023/09/18 10:13:32;;;;;;;13.10;4.15;;;;;;;19.76;100.00;100310.16;6212585;23;20039;-70
2023/09/18 10:16:02;;;;;;;9.55;3.65;;;;;;;19.74;100.00;100315.78;6185354;23;20012;-71
2023/09/18 10:18:52;;;;;;;12.73;3.90;;;;;;;19.77;100.00;100321.91;6213277;23;20017;-70
2023/09/18 10:21:31;;;;;;;12.15;3.63;;;;;;;19.81;100.00;100307.75;6213809;23;20387;-70
2023/09/18 10:24:15;;;;;;;13.00;4.47;;;;;;;19.84;100.00;100301.91;6213828;23;20091;-70
2023/09/18 10:27:04;;;;;;;13.45;4.28;;;;;;;19.92;100.00;100311.88;6187634;23;20087;-73
2023/09/18 10:29:32;;;;;;;13.15;4.18;;;;;;;19.93;100.00;100318.19;6212588;23;20461;-71
2023/09/18 10:31:58;;;;;;;16.45;4.45;;;;;;;19.94;100.00;100311.69;6185634;23;20013;-70
2023/09/18 10:34:24;;;;;;;12.88;4.13;;;;;;;19.96;100.00;100312.38;6185048;23;20020;-72
2023/09/18 10:36:51;;;;;;;12.35;4.13;;;;;;;19.96;100.00;100309.66;6184881;23;20016;-72
2023/09/18 10:39:23;;;;;;;17.90;5.15;;;;;;;19.98;100.00;100307.56;6213039;23;20001;-76
2023/09/18 10:41:52;;;;;;;19.95;4.75;;;;;;;19.95;100.00;100310.69;6213823;23;20004;-70
2023/09/18 10:44:18;;;;;;;16.50;4.88;;;;;;;19.94;100.00;100326.16;6186592;23;20378;-70
2023/09/18 10:46:45;;;;;;;12.75;4.82;;;;;;;19.92;100.00;100319.22;6212983;23;20368;-71
2023/09/18 10:49:10;;;;;;;15.75;5.25;;;;;;;19.88;100.00;100310.56;6213192;23;20011;-71
2023/09/18 10:51:41;;;;;;;17.23;5.82;;;;;;;19.87;100.00;100308.91;6213174;23;20335;-70
2023/09/18 10:54:08;;;;;;;15.25;4.50;;;;;;;19.88;100.00;100300.53;6212831;23;20043;-70
2023/09/18 10:56:34;;;;;;;17.88;5.80;;;;;;;19.87;100.00;100301.53;6212918;23;20066;-70
2023/09/18 10:59:00;;;;;;;13.25;4.75;;;;;;;19.88;100.00;100297.78;6212900;23;20051;-70
2023/09/18 11:01:27;;;;;;;15.35;5.00;;;;;;;19.88;100.00;100288.75;6212943;23;20418;-70
2023/09/18 11:03:57;;;;;;;13.93;5.20;;;;;;;19.88;100.00;100296.94;6213270;23;20011;-71
2023/09/18 11:06:26;;;;;;;15.25;5.47;;;;;;;19.89;100.00;100306.81;6213586;23;20004;-71
2023/09/18 11:09:01;;;;;;;;;;;;;;;19.99;100.00;100287.44;6213550;23;20004;-71